sensor_id;sensor_type;location;lat;lon;timestamp;pressure;altitude;pressure_sealevel;temperature;humidity
4012;BME280;2020;48.682;9.024;2023-10-08T00:01:21;97307.41;;;13.18;58.18
4012;BME280;2020;48.682;9.024;2023-10-08T00:03:47;97301.16;;;13.10;58.56
4012;BME280;2020;48.682;9.024;2023-10-08T00:06:17;97302.50;;;13.14;58.68
4012;BME280;2020;48.682;9.024;2023-10-08T00:08:45;97294.94;;;13.11;58.85
4012;BME280;2020;48.682;9.024;2023-10-08T00:11:10;97292.63;;;13.08;58.83
4012;BME280;2020;48.682;9.024;2023-10-08T00:13:36;97291.97;;;13.06;59.53
4012;BME280;2020;48.682;9.024;2023-10-08T00:16:06;97286.00;;;12.96;59.20
4012;BME280;2020;48.682;9.024;2023-10-08T00:18:35;97290.84;;;12.91;59.42
4012;BME280;2020;48.682;9.024;2023-10-08T00:21:00;97272.50;;;12.82;60.05
4012;BME280;2020;48.682;9.024;2023-10-08T00:23:32;97271.06;;;12.88;60.58
4012;BME280;2020;48.682;9.024;2023-10-08T00:26:00;97270.75;;;12.91;60.21
4012;BME280;2020;48.682;9.024;2023-10-08T00:28:31;97266.38;;;12.92;59.22
4012;BME280;2020;48.682;9.024;2023-10-08T00:30:57;97272.63;;;12.99;60.00
4012;BME280;2020;48.682;9.024;2023-10-08T00:33:23;97265.47;;;13.01;58.88
4012;BME280;2020;48.682;9.024;2023-10-08T00:35:49;97262.84;;;13.01;58.80
4012;BME280;2020;48.682;9.024;2023-10-08T00:38:14;97271.00;;;12.98;59.02
4012;BME280;2020;48.682;9.024;2023-10-08T00:40:41;97261.44;;;12.89;56.35
4012;BME280;2020;48.682;9.024;2023-10-08T00:43:34;97262.19;;;12.99;57.58
4012;BME280;2020;48.682;9.024;2023-10-08T00:46:03;97258.97;;;13.05;57.32
4012;BME280;2020;48.682;9.024;2023-10-08T00:48:36;97259.50;;;12.91;55.32
4012;BME280;2020;48.682;9.024;2023-10-08T00:51:05;97260.25;;;13.01;56.14
4012;BME280;2020;48.682;9.024;2023-10-08T00:54:02;97251.75;;;12.99;55.41
4012;BME280;2020;48.682;9.024;2023-10-08T00:56:36;97250.41;;;12.95;55.96
4012;BME280;2020;48.682;9.024;2023-10-08T00:59:20;97248.75;;;12.94;55.40
4012;BME280;2020;48.682;9.024;2023-10-08T01:01:50;97251.75;;;12.99;54.99
4012;BME280;2020;48.682;9.024;2023-10-08T01:04:25;97245.06;;;13.05;54.11
4012;BME280;2020;48.682;9.024;2023-10-08T01:06:58;97251.56;;;13.19;54.58
4012;BME280;2020;48.682;9.024;2023-10-08T01:09:25;97252.81;;;13.14;53.97
4012;BME280;2020;48.682;9.024;2023-10-08T01:12:14;97246.63;;;13.15;55.10
4012;BME280;2020;48.682;9.024;2023-10-08T01:14:55;97247.75;;;13.13;55.60
4012;BME280;2020;48.682;9.024;2023-10-08T01:17:24;97247.53;;;13.06;54.93
4012;BME280;2020;48.682;9.024;2023-10-08T01:19:50;97249.50;;;13.04;54.19
4012;BME280;2020;48.682;9.024;2023-10-08T01:22:20;97241.47;;;13.06;54.79
4012;BME280;2020;48.682;9.024;2023-10-08T01:24:47;97229.25;;;12.88;55.92
4012;BME280;2020;48.682;9.024;2023-10-08T01:27:17;97236.97;;;12.90;56.71
4012;BME280;2020;48.682;9.024;2023-10-08T01:29:48;97239.34;;;12.83;56.08
4012;BME280;2020;48.682;9.024;2023-10-08T01:32:18;97235.63;;;12.85;54.91
4012;BME280;2020;48.682;9.024;2023-10-08T01:34:44;97228.75;;;12.84;54.72
4012;BME280;2020;48.682;9.024;2023-10-08T01:37:13;97235.63;;;12.85;54.39
4012;BME280;2020;48.682;9.024;2023-10-08T01:39:38;97230.41;;;12.85;54.07
4012;BME280;2020;48.682;9.024;2023-10-08T01:42:08;97228.34;;;12.97;52.97
4012;BME280;2020;48.682;9.024;2023-10-08T01:44:41;97224.28;;;12.95;53.45
4012;BME280;2020;48.682;9.024;2023-10-08T01:47:06;97223.75;;;12.91;53.71
4012;BME280;2020;48.682;9.024;2023-10-08T01:49:31;97220.47;;;12.89;53.42
4012;BME280;2020;48.682;9.024;2023-10-08T01:51:59;97223.59;;;12.93;53.03
4012;BME280;2020;48.682;9.024;2023-10-08T01:54:30;97214.06;;;12.83;53.88
4012;BME280;2020;48.682;9.024;2023-10-08T01:57:01;97218.81;;;12.88;53.39
4012;BME280;2020;48.682;9.024;2023-10-08T01:59:31;97209.88;;;12.91;53.18
4012;BME280;2020;48.682;9.024;2023-10-08T02:01:57;97213.81;;;12.95;52.36
4012;BME280;2020;48.682;9.024;2023-10-08T02:04:23;97217.09;;;12.97;52.27
4012;BME280;2020;48.682;9.024;2023-10-08T02:06:48;97215.16;;;12.99;51.86
4012;BME280;2020;48.682;9.024;2023-10-08T02:09:13;97211.88;;;12.97;51.72
4012;BME280;2020;48.682;9.024;2023-10-08T02:11:44;97218.06;;;12.96;52.42
4012;BME280;2020;48.682;9.024;2023-10-08T02:14:10;97215.47;;;12.96;53.08
4012;BME280;2020;48.682;9.024;2023-10-08T02:16:36;97214.50;;;12.79;53.98
4012;BME280;2020;48.682;9.024;2023-10-08T02:19:02;97219.72;;;12.79;54.94
4012;BME280;2020;48.682;9.024;2023-10-08T02:21:28;97215.63;;;12.76;53.68
4012;BME280;2020;48.682;9.024;2023-10-08T02:23:54;97217.88;;;12.71;53.96
4012;BME280;2020;48.682;9.024;2023-10-08T02:26:19;97216.44;;;12.77;53.75
4012;BME280;2020;48.682;9.024;2023-10-08T02:28:44;97211.63;;;12.64;53.46
4012;BME280;2020;48.682;9.024;2023-10-08T02:31:10;97219.16;;;12.67;54.52
4012;BME280;2020;48.682;9.024;2023-10-08T02:33:35;97222.75;;;12.66;54.34
4012;BME280;2020;48.682;9.024;2023-10-08T02:36:02;97224.00;;;12.62;54.47
4012;BME280;2020;48.682;9.024;2023-10-08T02:38:29;97217.72;;;12.54;54.70
4012;BME280;2020;48.682;9.024;2023-10-08T02:40:56;97220.84;;;12.40;55.30
4012;BME280;2020;48.682;9.024;2023-10-08T02:43:22;97228.28;;;12.35;55.85
4012;BME280;2020;48.682;9.024;2023-10-08T02:45:48;97229.22;;;12.43;56.06
4012;BME280;2020;48.682;9.024;2023-10-08T02:48:14;97233.50;;;12.35;56.69
4012;BME280;2020;48.682;9.024;2023-10-08T02:50:40;97234.88;;;12.39;57.23
4012;BME280;2020;48.682;9.024;2023-10-08T02:53:06;97247.53;;;12.34;56.73
4012;BME280;2020;48.682;9.024;2023-10-08T02:55:38;97245.97;;;12.23;57.15
4012;BME280;2020;48.682;9.024;2023-10-08T02:58:11;97244.38;;;12.12;57.75
4012;BME280;2020;48.682;9.024;2023-10-08T03:00:43;97241.91;;;12.10;58.71
4012;BME280;2020;48.682;9.024;2023-10-08T03:03:08;97235.75;;;12.11;58.60
4012;BME280;2020;48.682;9.024;2023-10-08T03:05:51;97241.09;;;12.10;58.69
4012;BME280;2020;48.682;9.024;2023-10-08T03:08:18;97251.84;;;11.97;59.62
4012;BME280;2020;48.682;9.024;2023-10-08T03:10:48;97239.41;;;11.81;60.63
4012;BME280;2020;48.682;9.024;2023-10-08T03:13:15;97240.97;;;11.74;61.01
4012;BME280;2020;48.682;9.024;2023-10-08T03:15:41;97235.75;;;11.74;59.83
4012;BME280;2020;48.682;9.024;2023-10-08T03:18:26;97240.66;;;11.77;60.20
4012;BME280;2020;48.682;9.024;2023-10-08T03:21:01;97236.81;;;11.81;59.55
4012;BME280;2020;48.682;9.024;2023-10-08T03:23:29;97234.03;;;11.82;60.36
4012;BME280;2020;48.682;9.024;2023-10-08T03:26:02;97229.19;;;11.69;61.17
4012;BME280;2020;48.682;9.024;2023-10-08T03:28:30;97224.94;;;11.68;61.31
4012;BME280;2020;48.682;9.024;2023-10-08T03:31:00;97234.81;;;11.65;61.51
4012;BME280;2020;48.682;9.024;2023-10-08T03:33:39;97231.69;;;11.61;61.96
4012;BME280;2020;48.682;9.024;2023-10-08T03:36:05;97238.03;;;11.49;63.15
4012;BME280;2020;48.682;9.024;2023-10-08T03:38:48;97229.94;;;11.52;63.12
4012;BME280;2020;48.682;9.024;2023-10-08T03:41:21;97236.81;;;11.43;62.96
4012;BME280;2020;48.682;9.024;2023-10-08T03:43:49;97230.78;;;11.43;63.21
4012;BME280;2020;48.682;9.024;2023-10-08T03:46:33;97241.59;;;11.48;63.17
4012;BME280;2020;48.682;9.024;2023-10-08T03:49:06;97233.28;;;11.34;63.45
4012;BME280;2020;48.682;9.024;2023-10-08T03:51:37;97232.59;;;11.32;63.64
4012;BME280;2020;48.682;9.024;2023-10-08T03:54:05;97241.38;;;11.31;64.37
4012;BME280;2020;48.682;9.024;2023-10-08T03:56:34;97241.66;;;11.28;65.04
4012;BME280;2020;48.682;9.024;2023-10-08T03:59:02;97249.03;;;11.23;65.34
4012;BME280;2020;48.682;9.024;2023-10-08T04:01:37;97237.66;;;11.24;65.61
4012;BME280;2020;48.682;9.024;2023-10-08T04:04:05;97244.97;;;11.10;65.54
4012;BME280;2020;48.682;9.024;2023-10-08T04:06:31;97241.41;;;10.92;64.69
4012;BME280;2020;48.682;9.024;2023-10-08T04:09:00;97249.63;;;10.97;64.54
4012;BME280;2020;48.682;9.024;2023-10-08T04:11:38;97243.47;;;10.98;64.94
4012;BME280;2020;48.682;9.024;2023-10-08T04:14:23;97252.94;;;10.99;64.42
4012;BME280;2020;48.682;9.024;2023-10-08T04:16:49;97257.88;;;10.92;65.32
4012;BME280;2020;48.682;9.024;2023-10-08T04:19:19;97258.97;;;10.90;64.58
4012;BME280;2020;48.682;9.024;2023-10-08T04:21:46;97251.28;;;10.98;65.18
4012;BME280;2020;48.682;9.024;2023-10-08T04:24:19;97246.78;;;10.90;65.91
4012;BME280;2020;48.682;9.024;2023-10-08T04:26:45;97244.31;;;10.99;65.08
4012;BME280;2020;48.682;9.024;2023-10-08T04:29:10;97247.31;;;10.94;65.03
4012;BME280;2020;48.682;9.024;2023-10-08T04:31:41;97244.03;;;10.92;65.76
4012;BME280;2020;48.682;9.024;2023-10-08T04:34:12;97239.25;;;10.87;65.16
4012;BME280;2020;48.682;9.024;2023-10-08T04:36:43;97245.00;;;11.01;65.12
4012;BME280;2020;48.682;9.024;2023-10-08T04:39:14;97231.00;;;10.92;64.73
4012;BME280;2020;48.682;9.024;2023-10-08T04:41:46;97238.13;;;10.90;65.44
4012;BME280;2020;48.682;9.024;2023-10-08T04:44:13;97235.69;;;10.88;65.22
4012;BME280;2020;48.682;9.024;2023-10-08T04:46:40;97229.09;;;10.84;66.04
4012;BME280;2020;48.682;9.024;2023-10-08T04:49:15;97229.34;;;10.91;65.14
4012;BME280;2020;48.682;9.024;2023-10-08T04:51:56;97226.06;;;10.89;64.84
4012;BME280;2020;48.682;9.024;2023-10-08T04:54:24;97218.69;;;10.84;65.42
4012;BME280;2020;48.682;9.024;2023-10-08T04:56:49;97229.09;;;10.84;65.64
4012;BME280;2020;48.682;9.024;2023-10-08T04:59:14;97229.38;;;10.71;66.75
4012;BME280;2020;48.682;9.024;2023-10-08T05:01:45;97232.09;;;10.79;66.77
4012;BME280;2020;48.682;9.024;2023-10-08T05:04:16;97239.50;;;10.74;67.10
4012;BME280;2020;48.682;9.024;2023-10-08T05:07:10;97242.25;;;10.82;67.87
4012;BME280;2020;48.682;9.024;2023-10-08T05:10:12;97240.59;;;10.81;66.16
4012;BME280;2020;48.682;9.024;2023-10-08T05:12:46;97245.81;;;10.81;65.80
4012;BME280;2020;48.682;9.024;2023-10-08T05:15:26;97245.28;;;10.78;66.39
4012;BME280;2020;48.682;9.024;2023-10-08T05:18:09;97247.72;;;10.79;67.46
4012;BME280;2020;48.682;9.024;2023-10-08T05:20:38;97249.25;;;10.72;68.38
4012;BME280;2020;48.682;9.024;2023-10-08T05:23:16;97240.34;;;10.65;68.79
4012;BME280;2020;48.682;9.024;2023-10-08T05:25:48;97237.59;;;10.76;68.07
4012;BME280;2020;48.682;9.024;2023-10-08T05:28:36;97242.25;;;10.73;68.08
4012;BME280;2020;48.682;9.024;2023-10-08T05:31:11;97253.22;;;10.76;67.87
4012;BME280;2020;48.682;9.024;2023-10-08T05:33:40;97250.47;;;10.68;68.45
4012;BME280;2020;48.682;9.024;2023-10-08T05:36:11;97250.19;;;10.71;68.09
4012;BME280;2020;48.682;9.024;2023-10-08T05:38:43;97252.66;;;10.63;69.08
4012;BME280;2020;48.682;9.024;2023-10-08T05:41:24;97255.28;;;10.63;68.82
4012;BME280;2020;48.682;9.024;2023-10-08T05:43:54;97259.78;;;10.61;69.81
4012;BME280;2020;48.682;9.024;2023-10-08T05:46:42;97261.69;;;10.59;69.18
4012;BME280;2020;48.682;9.024;2023-10-08T05:49:32;97261.16;;;10.65;69.69
4012;BME280;2020;48.682;9.024;2023-10-08T05:51:58;97264.72;;;10.64;68.92
4012;BME280;2020;48.682;9.024;2023-10-08T05:54:29;97275.41;;;10.61;70.00
4012;BME280;2020;48.682;9.024;2023-10-08T05:59:46;97276.38;;;10.60;70.45
4012;BME280;2020;48.682;9.024;2023-10-08T06:05:07;97280.34;;;10.64;70.70
4012;BME280;2020;48.682;9.024;2023-10-08T06:07:43;97277.06;;;10.62;70.02
4012;BME280;2020;48.682;9.024;2023-10-08T06:10:19;97284.03;;;10.71;70.20
4012;BME280;2020;48.682;9.024;2023-10-08T06:13:03;97281.59;;;10.79;69.61
4012;BME280;2020;48.682;9.024;2023-10-08T06:15:38;97280.78;;;10.79;70.18
4012;BME280;2020;48.682;9.024;2023-10-08T06:18:24;97289.69;;;10.86;70.63
4012;BME280;2020;48.682;9.024;2023-10-08T06:20:53;97285.81;;;11.00;70.54
4012;BME280;2020;48.682;9.024;2023-10-08T06:23:24;97288.84;;;11.05;70.09
4012;BME280;2020;48.682;9.024;2023-10-08T06:25:51;97294.88;;;11.16;70.24
4012;BME280;2020;48.682;9.024;2023-10-08T06:28:24;97295.16;;;11.22;69.37
4012;BME280;2020;48.682;9.024;2023-10-08T06:30:55;97297.34;;;11.27;70.46
4012;BME280;2020;48.682;9.024;2023-10-08T06:33:22;97297.31;;;11.37;70.22
4012;BME280;2020;48.682;9.024;2023-10-08T06:35:48;97295.81;;;11.34;70.42
4012;BME280;2020;48.682;9.024;2023-10-08T06:38:32;97290.22;;;11.29;70.07
4012;BME280;2020;48.682;9.024;2023-10-08T06:40:58;97286.09;;;11.17;70.39
4012;BME280;2020;48.682;9.024;2023-10-08T06:43:34;97292.38;;;11.24;71.52
4012;BME280;2020;48.682;9.024;2023-10-08T06:46:02;97292.81;;;11.29;71.10
4012;BME280;2020;48.682;9.024;2023-10-08T06:48:28;97293.06;;;11.36;71.02
4012;BME280;2020;48.682;9.024;2023-10-08T06:50:55;97291.41;;;11.45;70.63
4012;BME280;2020;48.682;9.024;2023-10-08T06:53:24;97285.25;;;11.46;70.48
4012;BME280;2020;48.682;9.024;2023-10-08T06:55:49;97298.06;;;11.67;70.30
4012;BME280;2020;48.682;9.024;2023-10-08T06:58:25;97285.34;;;12.02;67.52
4012;BME280;2020;48.682;9.024;2023-10-08T07:00:51;97287.38;;;12.36;67.36
4012;BME280;2020;48.682;9.024;2023-10-08T07:03:17;97283.28;;;12.51;64.23
4012;BME280;2020;48.682;9.024;2023-10-08T07:05:47;97288.00;;;12.84;63.16
4012;BME280;2020;48.682;9.024;2023-10-08T07:08:28;97284.72;;;13.00;62.38
4012;BME280;2020;48.682;9.024;2023-10-08T07:10:56;97291.91;;;12.98;62.61
4012;BME280;2020;48.682;9.024;2023-10-08T07:13:22;97286.06;;;13.04;62.71
4012;BME280;2020;48.682;9.024;2023-10-08T07:15:52;97283.75;;;13.01;63.17
4012;BME280;2020;48.682;9.024;2023-10-08T07:18:18;97281.56;;;13.14;61.87
4012;BME280;2020;48.682;9.024;2023-10-08T07:20:55;97278.97;;;13.59;60.39
4012;BME280;2020;48.682;9.024;2023-10-08T07:23:27;97273.19;;;14.16;57.82
4012;BME280;2020;48.682;9.024;2023-10-08T07:25:58;97279.16;;;14.52;55.80
4012;BME280;2020;48.682;9.024;2023-10-08T07:28:42;97277.78;;;14.82;55.83
4012;BME280;2020;48.682;9.024;2023-10-08T07:31:13;97283.88;;;15.16;53.80
4012;BME280;2020;48.682;9.024;2023-10-08T07:33:41;97286.31;;;15.42;53.31
4012;BME280;2020;48.682;9.024;2023-10-08T07:36:10;97296.13;;;15.65;52.34
4012;BME280;2020;48.682;9.024;2023-10-08T07:38:43;97303.66;;;15.60;52.48
4012;BME280;2020;48.682;9.024;2023-10-08T07:41:12;97306.09;;;15.61;52.48
4012;BME280;2020;48.682;9.024;2023-10-08T07:43:39;97303.03;;;15.49;52.99
4012;BME280;2020;48.682;9.024;2023-10-08T07:46:04;97314.84;;;15.37;54.09
4012;BME280;2020;48.682;9.024;2023-10-08T07:48:31;97314.19;;;15.27;55.72
4012;BME280;2020;48.682;9.024;2023-10-08T07:50:57;97310.41;;;15.21;54.60
4012;BME280;2020;48.682;9.024;2023-10-08T07:53:25;97312.72;;;15.16;55.02
4012;BME280;2020;48.682;9.024;2023-10-08T07:56:05;97311.22;;;15.21;54.48
4012;BME280;2020;48.682;9.024;2023-10-08T07:58:32;97316.47;;;15.21;54.77
4012;BME280;2020;48.682;9.024;2023-10-08T08:01:03;97307.31;;;15.26;54.15
4012;BME280;2020;48.682;9.024;2023-10-08T08:03:28;97307.63;;;15.31;53.54
4012;BME280;2020;48.682;9.024;2023-10-08T08:05:53;97302.72;;;15.36;53.25
4012;BME280;2020;48.682;9.024;2023-10-08T08:08:19;97308.28;;;15.33;53.94
4012;BME280;2020;48.682;9.024;2023-10-08T08:10:46;97304.34;;;15.37;53.28
4012;BME280;2020;48.682;9.024;2023-10-08T08:13:12;97301.06;;;15.43;54.23
4012;BME280;2020;48.682;9.024;2023-10-08T08:15:37;97293.66;;;15.47;54.56
4012;BME280;2020;48.682;9.024;2023-10-08T08:18:07;97303.81;;;15.58;54.77
4012;BME280;2020;48.682;9.024;2023-10-08T08:20:36;97300.50;;;15.73;54.69
4012;BME280;2020;48.682;9.024;2023-10-08T08:23:22;97301.63;;;16.03;54.03
4012;BME280;2020;48.682;9.024;2023-10-08T08:25:50;97302.38;;;16.52;53.95
4012;BME280;2020;48.682;9.024;2023-10-08T08:28:32;97292.47;;;16.86;52.13
4012;BME280;2020;48.682;9.024;2023-10-08T08:31:04;97301.78;;;17.20;51.45
4012;BME280;2020;48.682;9.024;2023-10-08T08:33:32;97302.09;;;17.25;52.42
4012;BME280;2020;48.682;9.024;2023-10-08T08:36:17;97316.34;;;17.31;51.64
4012;BME280;2020;48.682;9.024;2023-10-08T08:38:42;97320.84;;;17.60;51.79
4012;BME280;2020;48.682;9.024;2023-10-08T08:41:08;97328.56;;;17.62;50.76
4012;BME280;2020;48.682;9.024;2023-10-08T08:43:37;97338.66;;;17.73;50.90
4012;BME280;2020;48.682;9.024;2023-10-08T08:46:09;97344.09;;;17.87;51.14
4012;BME280;2020;48.682;9.024;2023-10-08T08:48:39;97342.53;;;18.01;51.29
4012;BME280;2020;48.682;9.024;2023-10-08T08:51:05;97345.63;;;18.04;50.51
4012;BME280;2020;48.682;9.024;2023-10-08T08:53:32;97352.25;;;18.00;51.27
4012;BME280;2020;48.682;9.024;2023-10-08T08:55:58;97347.91;;;18.07;50.59
4012;BME280;2020;48.682;9.024;2023-10-08T08:58:25;97342.41;;;17.94;50.52
4012;BME280;2020;48.682;9.024;2023-10-08T09:00:52;97353.31;;;17.91;50.11
4012;BME280;2020;48.682;9.024;2023-10-08T09:03:18;97360.75;;;17.87;51.80
4012;BME280;2020;48.682;9.024;2023-10-08T09:05:45;97365.63;;;17.75;51.53
4012;BME280;2020;48.682;9.024;2023-10-08T09:08:15;97365.06;;;17.65;50.86
4012;BME280;2020;48.682;9.024;2023-10-08T09:10:43;97359.97;;;17.63;51.53
4012;BME280;2020;48.682;9.024;2023-10-08T09:13:22;97357.91;;;17.74;50.47
4012;BME280;2020;48.682;9.024;2023-10-08T09:15:51;97368.28;;;17.90;50.30
4012;BME280;2020;48.682;9.024;2023-10-08T09:18:17;97363.19;;;17.74;51.44
4012;BME280;2020;48.682;9.024;2023-10-08T09:20:43;97363.97;;;17.74;51.19
4012;BME280;2020;48.682;9.024;2023-10-08T09:23:11;97367.97;;;17.70;51.68
4012;BME280;2020;48.682;9.024;2023-10-08T09:25:44;97365.25;;;17.78;51.38
4012;BME280;2020;48.682;9.024;2023-10-08T09:28:11;97365.22;;;18.02;50.90
4012;BME280;2020;48.682;9.024;2023-10-08T09:30:40;97368.06;;;18.30;50.77
4012;BME280;2020;48.682;9.024;2023-10-08T09:33:07;97365.06;;;18.85;48.89
4012;BME280;2020;48.682;9.024;2023-10-08T09:35:33;97363.50;;;19.27;48.55
4012;BME280;2020;48.682;9.024;2023-10-08T09:38:02;97363.13;;;19.31;48.45
4012;BME280;2020;48.682;9.024;2023-10-08T09:40:28;97364.50;;;19.48;48.15
4012;BME280;2020;48.682;9.024;2023-10-08T09:42:54;97365.06;;;19.72;47.95
4012;BME280;2020;48.682;9.024;2023-10-08T09:45:20;97370.78;;;19.76;46.89
4012;BME280;2020;48.682;9.024;2023-10-08T09:47:50;97359.03;;;19.78;46.28
4012;BME280;2020;48.682;9.024;2023-10-08T09:50:28;97363.22;;;19.72;47.16
4012;BME280;2020;48.682;9.024;2023-10-08T09:53:11;97360.41;;;19.74;46.15
4012;BME280;2020;48.682;9.024;2023-10-08T09:55:46;97370.25;;;19.58;47.14
4012;BME280;2020;48.682;9.024;2023-10-08T09:58:15;97364.22;;;19.65;47.55
4012;BME280;2020;48.682;9.024;2023-10-08T10:00:43;97365.22;;;19.64;48.30
4012;BME280;2020;48.682;9.024;2023-10-08T10:03:10;97361.66;;;19.78;47.24
4012;BME280;2020;48.682;9.024;2023-10-08T10:05:37;97359.44;;;19.82;45.28
4012;BME280;2020;48.682;9.024;2023-10-08T10:08:03;97366.44;;;19.90;46.73
4012;BME280;2020;48.682;9.024;2023-10-08T10:10:36;97358.75;;;19.95;45.90
4012;BME280;2020;48.682;9.024;2023-10-08T10:13:09;97354.53;;;20.00;45.63
4012;BME280;2020;48.682;9.024;2023-10-08T10:15:38;97360.84;;;20.06;45.15
4012;BME280;2020;48.682;9.024;2023-10-08T10:18:09;97359.16;;;19.92;45.97
4012;BME280;2020;48.682;9.024;2023-10-08T10:20:46;97349.19;;;19.94;46.23
4012;BME280;2020;48.682;9.024;2023-10-08T10:23:34;97351.91;;;20.07;46.39
4012;BME280;2020;48.682;9.024;2023-10-08T10:26:01;97357.13;;;20.29;46.60
4012;BME280;2020;48.682;9.024;2023-10-08T10:28:27;97353.44;;;20.65;45.60
4012;BME280;2020;48.682;9.024;2023-10-08T10:30:55;97346.59;;;20.98;45.06
4012;BME280;2020;48.682;9.024;2023-10-08T10:33:20;97351.53;;;21.21;45.77
4012;BME280;2020;48.682;9.024;2023-10-08T10:35:51;97343.81;;;21.40;44.38
4012;BME280;2020;48.682;9.024;2023-10-08T10:38:19;97350.31;;;21.57;44.55
4012;BME280;2020;48.682;9.024;2023-10-08T10:40:48;97345.03;;;21.57;45.26
4012;BME280;2020;48.682;9.024;2023-10-08T10:43:23;97349.13;;;21.73;43.94
4012;BME280;2020;48.682;9.024;2023-10-08T10:45:55;97352.38;;;21.69;45.39
4012;BME280;2020;48.682;9.024;2023-10-08T10:48:20;97358.88;;;21.86;45.29
4012;BME280;2020;48.682;9.024;2023-10-08T10:50:46;97361.69;;;22.18;43.94
4012;BME280;2020;48.682;9.024;2023-10-08T10:53:37;97353.25;;;22.42;42.67
4012;BME280;2020;48.682;9.024;2023-10-08T10:56:25;97343.19;;;22.71;41.93
4012;BME280;2020;48.682;9.024;2023-10-08T10:59:01;97348.38;;;22.91;42.56
4012;BME280;2020;48.682;9.024;2023-10-08T11:01:40;97344.03;;;23.35;41.10
4012;BME280;2020;48.682;9.024;2023-10-08T11:04:13;97346.50;;;23.81;40.81
4012;BME280;2020;48.682;9.024;2023-10-08T11:06:43;97339.75;;;24.04;38.42
4012;BME280;2020;48.682;9.024;2023-10-08T11:09:10;97341.19;;;24.25;38.09
4012;BME280;2020;48.682;9.024;2023-10-08T11:11:40;97341.47;;;24.17;37.39
4012;BME280;2020;48.682;9.024;2023-10-08T11:14:11;97339.03;;;24.34;38.79
4012;BME280;2020;48.682;9.024;2023-10-08T11:16:42;97350.84;;;24.01;38.48
4012;BME280;2020;48.682;9.024;2023-10-08T11:19:09;97346.81;;;23.91;38.73
4012;BME280;2020;48.682;9.024;2023-10-08T11:21:48;97345.03;;;23.85;37.84
4012;BME280;2020;48.682;9.024;2023-10-08T11:24:27;97347.69;;;23.85;38.58
4012;BME280;2020;48.682;9.024;2023-10-08T11:26:53;97339.88;;;23.90;37.51
4012;BME280;2020;48.682;9.024;2023-10-08T11:29:36;97335.72;;;24.01;38.77
4012;BME280;2020;48.682;9.024;2023-10-08T11:32:04;97338.97;;;24.03;38.18
4012;BME280;2020;48.682;9.024;2023-10-08T11:34:32;97335.88;;;23.81;38.42
4012;BME280;2020;48.682;9.024;2023-10-08T11:37:04;97342.94;;;23.69;38.73
4012;BME280;2020;48.682;9.024;2023-10-08T11:39:53;97352.25;;;23.78;38.95
4012;BME280;2020;48.682;9.024;2023-10-08T11:42:23;97333.81;;;23.83;38.39
4012;BME280;2020;48.682;9.024;2023-10-08T11:45:06;97330.31;;;24.08;37.53
4012;BME280;2020;48.682;9.024;2023-10-08T11:47:46;97332.47;;;24.36;37.23
4012;BME280;2020;48.682;9.024;2023-10-08T11:50:14;97324.38;;;24.62;37.01
4012;BME280;2020;48.682;9.024;2023-10-08T11:52:45;97323.41;;;25.05;37.85
4012;BME280;2020;48.682;9.024;2023-10-08T11:55:11;97322.72;;;25.22;35.96
4012;BME280;2020;48.682;9.024;2023-10-08T11:57:52;97319.28;;;25.33;35.05
4012;BME280;2020;48.682;9.024;2023-10-08T12:00:19;97311.16;;;25.28;34.86
4012;BME280;2020;48.682;9.024;2023-10-08T12:02:48;97315.81;;;25.45;35.09
4012;BME280;2020;48.682;9.024;2023-10-08T12:05:14;97314.66;;;25.40;34.40
4012;BME280;2020;48.682;9.024;2023-10-08T12:07:52;97299.16;;;25.61;34.18
4012;BME280;2020;48.682;9.024;2023-10-08T12:10:19;97298.69;;;25.64;33.87
4012;BME280;2020;48.682;9.024;2023-10-08T12:12:51;97293.59;;;25.75;34.45
4012;BME280;2020;48.682;9.024;2023-10-08T12:15:20;97293.38;;;25.88;34.22
4012;BME280;2020;48.682;9.024;2023-10-08T12:17:49;97286.63;;;25.97;33.87
4012;BME280;2020;48.682;9.024;2023-10-08T12:20:40;97289.66;;;25.89;36.42
4012;BME280;2020;48.682;9.024;2023-10-08T12:23:10;97288.34;;;26.04;36.32
4012;BME280;2020;48.682;9.024;2023-10-08T12:25:44;97285.91;;;26.02;35.46
4012;BME280;2020;48.682;9.024;2023-10-08T12:28:17;97286.63;;;25.97;35.27
4012;BME280;2020;48.682;9.024;2023-10-08T12:30:44;97286.41;;;25.87;34.33
4012;BME280;2020;48.682;9.024;2023-10-08T12:33:09;97282.69;;;25.88;35.09
4012;BME280;2020;48.682;9.024;2023-10-08T12:35:43;97287.41;;;26.22;33.51
4012;BME280;2020;48.682;9.024;2023-10-08T12:38:12;97286.41;;;26.40;34.02
4012;BME280;2020;48.682;9.024;2023-10-08T12:40:38;97281.84;;;26.52;33.49
4012;BME280;2020;48.682;9.024;2023-10-08T12:43:15;97280.91;;;26.59;34.18
4012;BME280;2020;48.682;9.024;2023-10-08T12:45:48;97280.75;;;26.65;32.75
4012;BME280;2020;48.682;9.024;2023-10-08T12:50:46;97271.41;;;26.80;32.03
4012;BME280;2020;48.682;9.024;2023-10-08T12:53:18;97274.47;;;26.71;33.19
4012;BME280;2020;48.682;9.024;2023-10-08T12:55:43;97272.28;;;26.68;31.31
4012;BME280;2020;48.682;9.024;2023-10-08T12:58:11;97274.22;;;26.73;31.42
4012;BME280;2020;48.682;9.024;2023-10-08T13:00:39;97281.63;;;27.00;31.96
4012;BME280;2020;48.682;9.024;2023-10-08T13:03:08;97270.63;;;27.13;31.09
4012;BME280;2020;48.682;9.024;2023-10-08T13:05:48;97278.06;;;27.11;30.52
4012;BME280;2020;48.682;9.024;2023-10-08T13:08:17;97265.28;;;27.13;30.90
4012;BME280;2020;48.682;9.024;2023-10-08T13:10:43;97257.28;;;27.13;30.99
4012;BME280;2020;48.682;9.024;2023-10-08T13:13:11;97258.72;;;27.04;30.92
4012;BME280;2020;48.682;9.024;2023-10-08T13:15:40;97250.56;;;27.28;31.97
4012;BME280;2020;48.682;9.024;2023-10-08T13:18:07;97250.09;;;27.31;30.83
4012;BME280;2020;48.682;9.024;2023-10-08T13:20:32;97248.19;;;27.49;31.06
4012;BME280;2020;48.682;9.024;2023-10-08T13:23:01;97241.47;;;27.46;29.63
4012;BME280;2020;48.682;9.024;2023-10-08T13:25:26;97234.25;;;27.47;30.84
4012;BME280;2020;48.682;9.024;2023-10-08T13:27:52;97233.06;;;27.54;30.72
4012;BME280;2020;48.682;9.024;2023-10-08T13:30:17;97232.81;;;27.56;30.98
4012;BME280;2020;48.682;9.024;2023-10-08T13:32:43;97233.56;;;27.34;30.43
4012;BME280;2020;48.682;9.024;2023-10-08T13:35:08;97238.34;;;27.15;31.01
4012;BME280;2020;48.682;9.024;2023-10-08T13:37:36;97242.28;;;27.29;30.83
4012;BME280;2020;48.682;9.024;2023-10-08T13:40:02;97230.63;;;27.53;31.68
4012;BME280;2020;48.682;9.024;2023-10-08T13:42:27;97238.03;;;27.68;31.21
4012;BME280;2020;48.682;9.024;2023-10-08T13:44:53;97229.09;;;27.79;30.60
4012;BME280;2020;48.682;9.024;2023-10-08T13:47:20;97231.53;;;27.81;30.09
4012;BME280;2020;48.682;9.024;2023-10-08T13:49:48;97233.09;;;27.77;29.80